createdAt,value
2022-11-02T00:00:15.353Z,21.73
2022-11-02T00:01:22.449Z,22.63
2022-11-02T00:02:25.537Z,23.10
2022-11-02T00:03:29.524Z,23.35
2022-11-02T00:04:32.438Z,20.80
2022-11-02T00:05:36.352Z,22.58
2022-11-02T00:06:39.213Z,22.23
2022-11-02T00:07:43.470Z,23.73
2022-11-02T00:08:46.450Z,21.98
2022-11-02T00:09:50.241Z,24.10
2022-11-02T00:10:54.443Z,22.30
2022-11-02T00:11:58.743Z,22.85
2022-11-02T00:13:02.879Z,21.67
2022-11-02T00:14:06.020Z,22.63
2022-11-02T00:15:11.130Z,22.88
2022-11-02T00:16:16.021Z,25.92
2022-11-02T00:17:19.969Z,22.35
2022-11-02T00:18:22.870Z,23.35
2022-11-02T00:19:26.851Z,24.60
2022-11-02T00:20:29.800Z,25.27
2022-11-02T00:21:33.919Z,25.02
2022-11-02T00:22:37.079Z,23.48
2022-11-02T00:23:42.171Z,23.55
2022-11-02T00:24:44.970Z,26.35
2022-11-02T00:25:50.645Z,22.95
2022-11-02T00:26:53.787Z,23.48
2022-11-02T00:27:59.133Z,23.90
2022-11-02T00:29:02.119Z,21.90
2022-11-02T00:30:06.582Z,23.15
2022-11-02T00:31:09.532Z,21.90
2022-11-02T00:32:13.381Z,23.77
2022-11-02T00:33:16.328Z,21.98
2022-11-02T00:34:21.261Z,22.13
2022-11-02T00:35:24.081Z,22.02
2022-11-02T00:36:28.351Z,24.92
2022-11-02T00:37:31.134Z,24.95
2022-11-02T00:38:35.023Z,25.58
2022-11-02T00:39:37.870Z,22.65
2022-11-02T00:40:41.792Z,25.77
2022-11-02T00:41:44.597Z,25.13
2022-11-02T00:42:48.475Z,21.88
2022-11-02T00:43:53.101Z,23.83
2022-11-02T00:44:56.980Z,22.55
2022-11-02T00:45:59.761Z,26.50
2022-11-02T00:47:03.723Z,28.95
2022-11-02T00:48:07.225Z,27.30
2022-11-02T00:49:11.422Z,25.98
2022-11-02T00:50:14.288Z,24.77
2022-11-02T00:51:18.179Z,36.20
2022-11-02T00:52:21.430Z,34.97
2022-11-02T00:53:28.502Z,29.58
2022-11-02T00:54:31.332Z,38.75
2022-11-02T00:55:36.463Z,26.05
2022-11-02T00:56:39.802Z,23.48
2022-11-02T00:57:44.550Z,21.85
2022-11-02T00:58:47.371Z,25.08
2022-11-02T00:59:52.671Z,24.25
2022-11-02T01:00:56.821Z,21.25
2022-11-02T01:02:00.800Z,18.95
2022-11-02T01:03:03.998Z,21.15
2022-11-02T01:04:08.530Z,24.65
2022-11-02T01:05:11.936Z,32.63
2022-11-02T01:06:17.001Z,26.77
2022-11-02T01:07:20.091Z,28.70
2022-11-02T01:08:24.218Z,35.20
2022-11-02T01:09:27.079Z,31.98
2022-11-02T01:10:31.259Z,32.83
2022-11-02T01:11:36.392Z,26.25
2022-11-02T01:12:40.490Z,24.95
2022-11-02T01:13:43.639Z,24.27
2022-11-02T01:14:47.932Z,22.15
2022-11-02T01:15:52.183Z,20.23
2022-11-02T01:16:58.112Z,22.02
2022-11-02T01:18:01.352Z,21.23
2022-11-02T01:19:05.438Z,19.20
2022-11-02T01:20:10.058Z,21.08
2022-11-02T01:21:13.963Z,25.13
2022-11-02T01:22:17.853Z,26.45
2022-11-02T01:23:20.681Z,25.85
2022-11-02T01:24:24.857Z,24.50
2022-11-02T01:25:27.672Z,24.88
2022-11-02T01:26:31.569Z,23.85
2022-11-02T01:27:34.370Z,24.67
2022-11-02T01:28:38.493Z,26.05
2022-11-02T01:29:41.380Z,22.63
2022-11-02T01:30:45.450Z,21.95
2022-11-02T01:31:50.179Z,27.08
2022-11-02T01:32:54.184Z,24.42
2022-11-02T01:33:57.011Z,23.83
2022-11-02T01:35:00.940Z,22.95
2022-11-02T01:36:04.832Z,23.33
2022-11-02T01:37:08.673Z,23.70
2022-11-02T01:38:11.474Z,23.05
2022-11-02T01:39:15.448Z,23.60
2022-11-02T01:40:18.264Z,21.10
2022-11-02T01:41:22.194Z,24.17
2022-11-02T01:42:28.170Z,23.00
2022-11-02T01:43:34.630Z,24.27
2022-11-02T01:44:37.409Z,26.25
2022-11-02T01:45:41.570Z,30.38
2022-11-02T01:46:46.179Z,28.35
2022-11-02T01:47:53.506Z,28.08
2022-11-02T01:48:59.075Z,27.83
2022-11-02T01:50:06.983Z,26.45
2022-11-02T01:51:11.518Z,26.70
2022-11-02T01:52:17.952Z,25.55
2022-11-02T01:53:20.823Z,25.52
2022-11-02T01:54:27.814Z,23.13
2022-11-02T01:55:32.145Z,25.77
2022-11-02T01:56:37.154Z,25.20
2022-11-02T01:57:42.235Z,26.77
2022-11-02T01:58:48.233Z,25.25
2022-11-02T01:59:53.464Z,24.38
2022-11-02T02:00:57.826Z,23.75
2022-11-02T02:02:01.549Z,25.33
2022-11-02T02:03:10.162Z,24.63
2022-11-02T02:04:13.783Z,22.67
2022-11-02T02:05:18.531Z,22.55
2022-11-02T02:06:21.352Z,23.58
2022-11-02T02:07:27.609Z,23.20
2022-11-02T02:08:30.800Z,24.25
2022-11-02T02:09:34.945Z,25.83
2022-11-02T02:10:37.946Z,40.15
2022-11-02T02:11:43.145Z,23.30
2022-11-02T02:12:46.086Z,24.27
2022-11-02T02:13:54.790Z,34.78
2022-11-02T02:14:58.075Z,30.38
2022-11-02T02:16:04.946Z,46.40
2022-11-02T02:17:18.744Z,44.72
2022-11-02T02:18:27.784Z,30.35
2022-11-02T02:19:39.793Z,29.30
2022-11-02T02:21:00.583Z,33.60
2022-11-02T02:22:28.004Z,29.20
2022-11-02T02:23:42.804Z,25.88
2022-11-02T02:24:50.248Z,23.35
2022-11-02T02:26:29.962Z,19.70
2022-11-02T02:27:47.403Z,17.05
2022-11-02T02:28:54.375Z,17.73
2022-11-02T02:30:05.051Z,19.27
2022-11-02T02:31:13.264Z,16.83
2022-11-02T02:32:20.020Z,19.38
2022-11-02T02:33:26.856Z,20.08
2022-11-02T02:34:35.527Z,18.80
2022-11-02T02:35:42.047Z,20.40
2022-11-02T02:36:51.597Z,20.50
2022-11-02T02:37:56.146Z,20.95
2022-11-02T02:39:04.044Z,19.42
2022-11-02T02:40:09.844Z,20.95
2022-11-02T02:41:19.795Z,31.25
2022-11-02T02:42:24.596Z,19.20
2022-11-02T02:43:35.046Z,22.23
2022-11-02T02:44:39.072Z,25.30
2022-11-02T02:45:45.988Z,35.38
2022-11-02T02:46:56.233Z,29.77
2022-11-02T02:48:03.993Z,41.45
2022-11-02T02:49:08.395Z,44.33
2022-11-02T02:50:16.364Z,36.15
2022-11-02T02:51:22.266Z,33.88
2022-11-02T02:52:28.825Z,26.05
2022-11-02T02:53:36.726Z,27.77
2022-11-02T02:54:42.519Z,24.55
2022-11-02T02:55:47.080Z,32.90
2022-11-02T02:56:55.505Z,28.48
2022-11-02T02:57:58.749Z,33.70
2022-11-02T02:59:06.923Z,26.55
2022-11-02T03:00:14.114Z,32.50
2022-11-02T03:01:18.824Z,23.00
2022-11-02T03:02:23.831Z,23.40
2022-11-02T03:03:28.993Z,18.95
2022-11-02T03:04:31.917Z,23.00
2022-11-02T03:05:37.517Z,16.55
2022-11-02T03:06:48.628Z,14.98
2022-11-02T03:07:52.774Z,15.73
2022-11-02T03:09:03.275Z,17.38
2022-11-02T03:10:12.195Z,19.58
2022-11-02T03:11:16.603Z,14.57
2022-11-02T03:12:29.533Z,14.98
2022-11-02T03:13:40.196Z,15.13
2022-11-02T03:14:55.876Z,17.63
2022-11-02T03:16:04.084Z,14.32
2022-11-02T03:17:16.765Z,15.27
2022-11-02T03:18:30.930Z,15.73
2022-11-02T03:19:42.665Z,14.55
2022-11-02T03:20:55.546Z,14.77
2022-11-02T03:22:02.302Z,17.17
2022-11-02T03:23:13.394Z,15.38
2022-11-02T03:24:20.756Z,17.40
2022-11-02T03:25:29.470Z,16.02
2022-11-02T03:26:36.382Z,15.20
2022-11-02T03:27:41.088Z,19.05
2022-11-02T03:28:55.670Z,15.45
2022-11-02T03:30:04.721Z,22.60
2022-11-02T03:31:11.990Z,19.95
2022-11-02T03:32:21.776Z,16.42
2022-11-02T03:33:29.559Z,18.17
2022-11-02T03:34:38.126Z,17.90
2022-11-02T03:35:45.085Z,16.70
2022-11-02T03:36:51.522Z,16.60
2022-11-02T03:38:00.365Z,20.40
2022-11-02T03:39:06.994Z,17.85
2022-11-02T03:40:16.225Z,17.50
2022-11-02T03:41:22.533Z,16.13
2022-11-02T03:42:28.541Z,19.65
2022-11-02T03:43:34.457Z,18.23
2022-11-02T03:44:39.115Z,18.58
2022-11-02T03:45:49.215Z,17.52
2022-11-02T03:46:55.915Z,21.90
2022-11-02T03:48:03.488Z,20.90
2022-11-02T03:49:08.742Z,18.70
2022-11-02T03:50:16.685Z,24.65
2022-11-02T03:51:21.743Z,22.30
2022-11-02T03:52:29.714Z,17.65
2022-11-02T03:53:36.304Z,21.77
2022-11-02T03:54:44.137Z,18.65
2022-11-02T03:55:49.455Z,20.75
2022-11-02T03:56:55.055Z,19.08
2022-11-02T03:57:59.305Z,27.45
2022-11-02T03:59:06.458Z,24.17
2022-11-02T04:00:11.516Z,23.70
2022-11-02T04:01:21.103Z,22.90
2022-11-02T04:02:24.936Z,17.58
2022-11-02T04:03:29.732Z,19.67
2022-11-02T04:04:32.565Z,17.63
2022-11-02T04:05:38.169Z,19.92
2022-11-02T04:06:48.816Z,18.65
2022-11-02T04:08:12.954Z,17.98
2022-11-02T04:09:16.974Z,17.98
2022-11-02T04:10:20.044Z,20.23
2022-11-02T04:11:41.394Z,29.17
2022-11-02T04:13:10.261Z,24.58
2022-11-02T04:14:31.341Z,21.85
2022-11-02T04:15:36.936Z,20.77
2022-11-02T04:16:41.685Z,19.58
2022-11-02T04:18:08.578Z,19.48
2022-11-02T04:19:30.078Z,17.90
2022-11-02T04:20:43.356Z,18.63
2022-11-02T04:22:00.968Z,21.75
2022-11-02T04:23:23.033Z,23.42
2022-11-02T04:24:46.425Z,22.08
2022-11-02T04:25:54.644Z,25.02
2022-11-02T04:27:10.511Z,27.75
2022-11-02T04:28:14.419Z,25.60
2022-11-02T04:29:31.444Z,33.45
2022-11-02T04:30:35.337Z,34.03
2022-11-02T04:31:38.778Z,26.80
2022-11-02T04:33:02.191Z,38.30
2022-11-02T04:34:09.598Z,24.35
2022-11-02T04:35:13.001Z,21.42
2022-11-02T04:36:17.548Z,28.00
2022-11-02T04:37:40.948Z,17.50
2022-11-02T04:38:43.825Z,20.55
2022-11-02T04:40:00.651Z,33.55
2022-11-02T04:41:21.987Z,21.48
2022-11-02T04:42:28.217Z,25.77
2022-11-02T04:43:35.104Z,20.52
2022-11-02T04:44:39.535Z,20.10
2022-11-02T04:45:50.166Z,19.10
2022-11-02T04:46:54.163Z,20.42
2022-11-02T04:48:03.228Z,30.58
2022-11-02T04:49:08.323Z,40.45
2022-11-02T04:50:13.084Z,26.80
2022-11-02T04:51:20.731Z,27.25
2022-11-02T04:52:23.795Z,26.95
2022-11-02T04:53:28.725Z,34.35
2022-11-02T04:54:31.680Z,26.75
2022-11-02T04:55:39.000Z,31.35
2022-11-02T04:56:42.836Z,25.40
2022-11-02T04:57:46.872Z,22.98
2022-11-02T04:58:50.877Z,23.77
2022-11-02T04:59:54.767Z,23.42
2022-11-02T05:00:57.557Z,24.58
2022-11-02T05:02:01.737Z,26.00
2022-11-02T05:03:09.595Z,20.40
2022-11-02T05:04:17.424Z,23.65
2022-11-02T05:05:20.925Z,28.80
2022-11-02T05:06:27.444Z,30.13
2022-11-02T05:07:31.338Z,37.95
2022-11-02T05:08:35.346Z,21.38
2022-11-02T05:09:38.335Z,24.80
2022-11-02T05:10:42.603Z,23.88
2022-11-02T05:11:45.766Z,22.52
2022-11-02T05:12:49.975Z,20.98
2022-11-02T05:13:53.516Z,22.73
2022-11-02T05:14:57.358Z,29.95
2022-11-02T05:16:00.504Z,24.60
2022-11-02T05:17:06.452Z,24.85
2022-11-02T05:18:17.696Z,25.17
2022-11-02T05:19:22.954Z,23.15
2022-11-02T05:20:25.902Z,25.00
2022-11-02T05:21:30.761Z,32.45
2022-11-02T05:22:34.274Z,26.23
2022-11-02T05:23:38.601Z,25.88
2022-11-02T05:24:41.734Z,26.58
2022-11-02T05:25:54.015Z,35.13
2022-11-02T05:26:58.105Z,22.13
2022-11-02T05:28:02.369Z,24.60
2022-11-02T05:29:06.414Z,23.95
2022-11-02T05:30:11.024Z,32.85
2022-11-02T05:31:15.261Z,27.85
2022-11-02T05:32:19.544Z,19.60
2022-11-02T05:33:30.282Z,20.52
2022-11-02T05:34:35.096Z,16.25
2022-11-02T05:35:39.043Z,18.80
2022-11-02T05:36:41.985Z,17.33
2022-11-02T05:37:45.988Z,21.45
2022-11-02T05:38:48.817Z,17.27
2022-11-02T05:39:52.903Z,20.80
2022-11-02T05:40:57.759Z,19.75
2022-11-02T05:42:04.841Z,20.25
2022-11-02T05:43:09.105Z,21.42
2022-11-02T05:44:14.037Z,22.50
2022-11-02T05:45:20.585Z,25.30
2022-11-02T05:46:28.322Z,30.63
2022-11-02T05:47:31.100Z,33.40
2022-11-02T05:48:36.414Z,26.83
2022-11-02T05:49:39.216Z,34.83
2022-11-02T05:50:43.024Z,30.15
2022-11-02T05:51:45.765Z,26.25
2022-11-02T05:52:49.553Z,30.45
2022-11-02T05:53:52.398Z,27.73
2022-11-02T05:54:56.274Z,27.23
2022-11-02T05:55:59.725Z,27.50
2022-11-02T05:57:03.833Z,28.42
2022-11-02T05:58:06.711Z,22.98
2022-11-02T05:59:11.621Z,32.50
2022-11-02T06:00:14.912Z,37.80
2022-11-02T06:01:18.815Z,36.47
2022-11-02T06:02:24.766Z,33.53
2022-11-02T06:03:28.718Z,45.47
2022-11-02T06:04:34.115Z,32.28
2022-11-02T06:05:37.070Z,28.40
2022-11-02T06:06:41.174Z,33.00
2022-11-02T06:07:44.015Z,32.60
2022-11-02T06:08:47.817Z,35.50
2022-11-02T06:09:50.567Z,37.70
2022-11-02T06:11:05.675Z,35.03
2022-11-02T06:12:20.164Z,37.45
2022-11-02T06:13:24.184Z,45.78
2022-11-02T06:14:43.212Z,37.58
2022-11-02T06:15:46.154Z,39.60
2022-11-02T06:16:50.050Z,40.63
2022-11-02T06:17:53.072Z,50.05
2022-11-02T06:18:57.153Z,65.85
2022-11-02T06:20:01.466Z,70.38
2022-11-02T06:21:05.648Z,69.40
2022-11-02T06:22:08.461Z,71.03
2022-11-02T06:23:14.413Z,75.93
2022-11-02T06:24:35.987Z,59.83
2022-11-02T06:25:54.137Z,48.28
2022-11-02T06:27:15.938Z,71.75
2022-11-02T06:28:35.948Z,72.30
2022-11-02T06:29:50.485Z,82.65
2022-11-02T06:31:11.522Z,86.30
2022-11-02T06:32:30.457Z,56.05
2022-11-02T06:33:46.180Z,63.33
2022-11-02T06:34:49.023Z,68.25
2022-11-02T06:35:55.651Z,75.90
2022-11-02T06:37:15.133Z,77.25
2022-11-02T06:38:36.113Z,65.90
2022-11-02T06:39:55.944Z,91.80
2022-11-02T06:41:11.815Z,87.13
2022-11-02T06:42:44.926Z,75.40
2022-11-02T06:44:06.273Z,71.05
2022-11-02T06:45:21.501Z,72.90
2022-11-02T06:46:40.445Z,67.82
2022-11-02T06:48:02.138Z,72.47
2022-11-02T06:49:05.975Z,70.43
2022-11-02T06:50:09.728Z,69.55
2022-11-02T06:51:15.044Z,59.95
2022-11-02T06:52:17.817Z,57.10
2022-11-02T06:53:21.636Z,57.30
2022-11-02T06:54:24.574Z,63.30
2022-11-02T06:55:28.423Z,62.13
2022-11-02T06:56:51.648Z,57.92
2022-11-02T06:57:55.025Z,60.20
2022-11-02T06:59:11.537Z,57.65
2022-11-02T07:00:31.785Z,56.20
2022-11-02T07:01:36.430Z,56.70
2022-11-02T07:02:59.968Z,45.60
2022-11-02T07:04:03.975Z,51.05
2022-11-02T07:05:21.537Z,39.28
2022-11-02T07:06:42.945Z,46.88
2022-11-02T07:08:01.600Z,34.50
2022-11-02T07:09:21.576Z,45.42
2022-11-02T07:10:43.108Z,46.75
2022-11-02T07:12:01.563Z,65.00
2022-11-02T07:13:20.695Z,34.58
2022-11-02T07:14:23.423Z,41.80
2022-11-02T07:15:28.324Z,35.28
2022-11-02T07:16:32.278Z,47.47
2022-11-02T07:17:35.173Z,46.95
2022-11-02T07:18:39.105Z,40.72
2022-11-02T07:19:41.974Z,36.50
2022-11-02T07:20:45.885Z,43.05
2022-11-02T07:21:50.137Z,63.00
2022-11-02T07:22:54.642Z,50.58
2022-11-02T07:23:57.609Z,52.40
2022-11-02T07:25:01.598Z,44.08
2022-11-02T07:26:05.344Z,29.73
2022-11-02T07:27:09.286Z,41.38
2022-11-02T07:28:12.212Z,38.33
2022-11-02T07:29:16.407Z,23.77
2022-11-02T07:30:19.402Z,42.13
2022-11-02T07:31:23.300Z,37.40
2022-11-02T07:32:27.336Z,33.40
2022-11-02T07:33:30.254Z,25.02
2022-11-02T07:34:34.328Z,32.33
2022-11-02T07:35:38.171Z,31.92
2022-11-02T07:36:40.946Z,34.17
2022-11-02T07:37:46.525Z,30.17
2022-11-02T07:38:49.374Z,30.77
2022-11-02T07:39:53.304Z,32.45
2022-11-02T07:40:56.134Z,35.78
2022-11-02T07:42:00.210Z,39.92
2022-11-02T07:43:04.613Z,31.50
2022-11-02T07:44:44.047Z,27.20
2022-11-02T07:45:47.826Z,43.63
2022-11-02T07:46:51.665Z,33.45
2022-11-02T07:47:55.485Z,31.38
2022-11-02T07:48:59.408Z,38.15
2022-11-02T07:50:03.665Z,32.35
2022-11-02T07:51:08.092Z,38.78
2022-11-02T07:52:11.917Z,24.20
2022-11-02T07:53:17.499Z,34.70
2022-11-02T07:54:21.460Z,32.95
2022-11-02T07:55:25.933Z,26.45
2022-11-02T07:56:29.897Z,24.95
2022-11-02T07:57:32.844Z,23.67
2022-11-02T07:58:36.885Z,27.23
2022-11-02T07:59:39.730Z,24.65
2022-11-02T08:00:44.125Z,25.60
2022-11-02T08:01:46.921Z,29.50
2022-11-02T08:02:51.597Z,27.85
2022-11-02T08:03:54.983Z,27.83
2022-11-02T08:04:58.786Z,24.83
2022-11-02T08:06:02.567Z,24.17
2022-11-02T08:07:06.427Z,28.00
2022-11-02T08:08:11.913Z,25.15
2022-11-02T08:09:17.177Z,24.15
2022-11-02T08:10:19.965Z,25.95
2022-11-02T08:11:23.849Z,23.45
2022-11-02T08:12:27.319Z,27.85
2022-11-02T08:13:32.700Z,29.90
2022-11-02T08:14:37.008Z,24.45
2022-11-02T08:15:39.945Z,27.75
2022-11-02T08:16:44.564Z,23.80
2022-11-02T08:17:47.283Z,24.58
2022-11-02T08:18:51.546Z,25.60
2022-11-02T08:19:54.437Z,25.65
2022-11-02T08:20:59.276Z,23.58
2022-11-02T08:22:02.080Z,27.67
2022-11-02T08:23:07.767Z,23.45
2022-11-02T08:24:10.617Z,23.83
2022-11-02T08:26:23.606Z,22.88
2022-11-02T08:27:27.406Z,25.95
2022-11-02T08:28:32.320Z,23.17
2022-11-02T08:29:37.126Z,22.73
2022-11-02T08:30:39.876Z,24.17
2022-11-02T08:31:43.674Z,23.67
2022-11-02T08:32:46.485Z,22.88
2022-11-02T08:33:50.499Z,23.15
2022-11-02T08:34:53.195Z,22.98
2022-11-02T08:36:03.305Z,21.73
2022-11-02T08:37:07.777Z,26.00
2022-11-02T08:38:11.859Z,24.52
2022-11-02T08:39:18.603Z,23.23
2022-11-02T08:40:24.957Z,23.73
2022-11-02T08:41:27.844Z,23.00
2022-11-02T08:42:31.740Z,24.42
2022-11-02T08:43:35.913Z,23.90
2022-11-02T08:44:42.483Z,35.08
2022-11-02T08:47:10.925Z,29.90
2022-11-02T08:48:13.982Z,24.40
2022-11-02T08:49:18.915Z,25.27
2022-11-02T08:50:22.164Z,22.02
2022-11-02T08:51:26.003Z,23.52
2022-11-02T08:52:28.793Z,23.38
2022-11-02T08:53:32.743Z,24.08
2022-11-02T08:54:35.523Z,24.23
2022-11-02T08:55:40.745Z,24.88
2022-11-02T08:56:44.572Z,26.45
2022-11-02T08:57:47.818Z,23.15
2022-11-02T08:58:51.604Z,23.60
2022-11-02T08:59:54.344Z,23.60
2022-11-02T09:00:58.176Z,23.38
2022-11-02T09:02:01.142Z,24.17
2022-11-02T09:03:06.975Z,23.42
2022-11-02T09:04:11.031Z,23.48
2022-11-02T09:05:18.986Z,22.50
2022-11-02T09:06:23.435Z,21.92
2022-11-02T09:07:28.980Z,21.80
2022-11-02T09:08:31.960Z,22.30
2022-11-02T09:09:35.845Z,21.48
2022-11-02T09:10:40.166Z,21.73
2022-11-02T09:11:43.914Z,20.65
2022-11-02T09:12:46.752Z,20.60
2022-11-02T09:13:54.256Z,20.55
2022-11-02T09:14:59.544Z,21.67
2022-11-02T09:16:03.515Z,20.90
2022-11-02T09:17:06.402Z,20.90
2022-11-02T09:18:10.592Z,19.45
2022-11-02T09:19:14.495Z,20.45
2022-11-02T09:20:18.016Z,20.98
2022-11-02T09:21:21.874Z,21.38
2022-11-02T09:22:24.669Z,21.33
2022-11-02T09:23:28.479Z,18.67
2022-11-02T09:24:31.281Z,21.17
2022-11-02T09:25:35.310Z,21.73
2022-11-02T09:26:40.716Z,21.65
2022-11-02T09:27:44.025Z,20.30
2022-11-02T09:28:48.153Z,20.88
2022-11-02T09:29:51.062Z,21.38
2022-11-02T09:30:54.937Z,19.98
2022-11-02T09:31:58.924Z,19.88
2022-11-02T09:33:03.840Z,20.63
2022-11-02T09:34:08.016Z,20.20
2022-11-02T09:35:15.426Z,20.10
2022-11-02T09:36:19.462Z,20.02
2022-11-02T09:37:22.396Z,22.23
2022-11-02T09:38:27.124Z,20.08
2022-11-02T09:39:30.014Z,20.63
2022-11-02T09:40:41.514Z,20.30
2022-11-02T09:41:51.102Z,21.30
2022-11-02T09:43:09.635Z,21.63
2022-11-02T09:44:16.584Z,19.92
2022-11-02T09:45:20.618Z,20.17
2022-11-02T09:46:27.285Z,19.55
2022-11-02T09:48:59.591Z,18.92
2022-11-02T09:50:03.905Z,18.23
2022-11-02T09:51:11.334Z,22.92
2022-11-02T09:52:26.577Z,19.52
2022-11-02T09:53:38.033Z,21.60
2022-11-02T09:54:44.019Z,19.15
2022-11-02T09:55:51.413Z,17.95
2022-11-02T09:56:59.936Z,18.77
2022-11-02T09:58:07.974Z,19.38
2022-11-02T09:59:15.387Z,18.83
2022-11-02T10:00:19.859Z,17.50
2022-11-02T10:01:35.856Z,18.70
2022-11-02T10:02:48.771Z,19.65
2022-11-02T10:04:09.692Z,20.35
2022-11-02T10:05:26.403Z,17.70
2022-11-02T10:06:30.764Z,19.67
2022-11-02T10:07:44.544Z,18.63
2022-11-02T10:08:54.064Z,18.40
2022-11-02T10:09:58.939Z,20.25
2022-11-02T10:11:13.083Z,19.50
2022-11-02T10:12:22.345Z,18.88
2022-11-02T10:13:33.575Z,19.40
2022-11-02T10:14:40.354Z,17.60
2022-11-02T10:15:48.069Z,18.08
2022-11-02T10:17:15.514Z,17.33
2022-11-02T10:18:20.186Z,18.95
2022-11-02T10:19:27.769Z,15.57
2022-11-02T10:20:38.014Z,13.95
2022-11-02T10:21:43.495Z,14.55
2022-11-02T10:22:47.834Z,10.90
2022-11-02T10:23:53.388Z,11.73
2022-11-02T10:24:57.420Z,10.23
2022-11-02T10:26:01.714Z,9.15
2022-11-02T10:27:14.062Z,9.38
2022-11-02T10:28:22.113Z,9.80
2022-11-02T10:29:38.854Z,10.35
2022-11-02T10:30:43.624Z,9.70
2022-11-02T10:31:48.802Z,9.90
2022-11-02T10:32:54.425Z,14.73
2022-11-02T10:33:58.393Z,8.57
2022-11-02T10:35:17.861Z,9.75
2022-11-02T10:36:35.322Z,7.88
2022-11-02T10:37:52.475Z,8.90
2022-11-02T10:39:06.514Z,8.07
2022-11-02T10:40:20.638Z,9.82
2022-11-02T10:41:45.752Z,7.60
2022-11-02T10:43:07.050Z,7.93
2022-11-02T10:44:23.657Z,8.55
2022-11-02T10:45:42.805Z,7.72
2022-11-02T10:46:57.802Z,7.72
2022-11-02T10:48:05.718Z,7.50
2022-11-02T10:49:15.081Z,10.73
2022-11-02T10:50:32.430Z,8.55
2022-11-02T10:51:35.283Z,7.90
2022-11-02T10:52:40.686Z,8.68
2022-11-02T10:53:46.085Z,7.65
2022-11-02T10:54:50.605Z,9.30
2022-11-02T10:55:59.838Z,8.50
2022-11-02T10:57:11.211Z,8.40
2022-11-02T10:58:17.742Z,8.15
2022-11-02T10:59:24.276Z,8.68
2022-11-02T11:00:29.812Z,8.40
2022-11-02T11:01:33.781Z,8.52
2022-11-02T11:02:36.415Z,9.13
2022-11-02T11:03:55.955Z,7.05
2022-11-02T11:05:14.180Z,7.55
2022-11-02T11:06:17.896Z,6.30
2022-11-02T11:07:25.552Z,6.03
2022-11-02T11:08:47.255Z,6.88
2022-11-02T11:09:52.486Z,5.53
2022-11-02T11:10:56.773Z,5.25
2022-11-02T11:12:01.875Z,8.05
2022-11-02T11:13:07.811Z,8.80
2022-11-02T11:16:51.304Z,6.70
2022-11-02T11:19:40.409Z,6.43
2022-11-02T11:20:44.757Z,6.10
2022-11-02T11:21:47.663Z,5.95
2022-11-02T11:23:09.243Z,6.60
2022-11-02T11:24:23.051Z,6.97
2022-11-02T11:25:28.233Z,6.80
2022-11-02T11:26:33.111Z,6.13
2022-11-02T11:27:45.295Z,6.93
2022-11-02T11:28:55.179Z,7.25
2022-11-02T11:30:00.276Z,7.85
2022-11-02T11:31:15.034Z,7.05
2022-11-02T11:32:20.326Z,7.30
2022-11-02T11:33:23.397Z,6.68
2022-11-02T11:34:28.683Z,7.90
2022-11-02T11:35:33.584Z,6.07
2022-11-02T11:36:37.881Z,6.40
2022-11-02T11:37:49.362Z,7.00
2022-11-02T11:38:54.155Z,6.05
2022-11-02T11:40:00.897Z,6.45
2022-11-02T11:41:07.895Z,6.88
2022-11-02T11:42:16.294Z,7.28
2022-11-02T11:43:20.215Z,7.00
2022-11-02T11:44:24.153Z,5.93
2022-11-02T11:45:28.644Z,5.90
2022-11-02T11:46:45.175Z,7.20
2022-11-02T11:47:53.197Z,5.72
2022-11-02T11:48:59.794Z,6.05
2022-11-02T11:50:21.325Z,5.65
2022-11-02T11:51:32.404Z,6.68
2022-11-02T11:52:36.445Z,6.10
2022-11-02T11:53:39.064Z,5.70
2022-11-02T11:54:54.372Z,5.63
2022-11-02T11:56:00.084Z,5.75
2022-11-02T11:57:24.845Z,5.88
2022-11-02T11:58:29.965Z,5.75
2022-11-02T11:59:46.065Z,5.63
2022-11-02T12:01:09.296Z,6.50
2022-11-02T12:02:25.407Z,5.60
2022-11-02T12:03:29.273Z,6.15
2022-11-02T12:04:33.862Z,5.85
2022-11-02T12:05:49.454Z,7.50
2022-11-02T12:06:58.531Z,6.05
2022-11-02T12:08:21.141Z,5.43
2022-11-02T12:09:29.245Z,5.85
2022-11-02T12:10:53.098Z,5.05
2022-11-02T12:12:03.342Z,5.50
2022-11-02T12:13:15.581Z,5.32
2022-11-02T12:14:31.918Z,5.47
2022-11-02T12:15:47.076Z,5.10
2022-11-02T12:17:05.774Z,4.95
2022-11-02T12:18:31.264Z,5.05
2022-11-02T12:19:48.074Z,4.50
2022-11-02T12:20:57.465Z,4.10
2022-11-02T12:22:07.264Z,5.00
2022-11-02T12:23:24.115Z,4.72
2022-11-02T12:24:49.088Z,5.05
2022-11-02T12:26:01.611Z,4.95
2022-11-02T12:27:22.065Z,4.65
2022-11-02T12:28:33.811Z,4.80
2022-11-02T12:30:04.380Z,4.63
2022-11-02T12:31:19.037Z,4.90
2022-11-02T12:32:34.712Z,4.78
2022-11-02T12:33:51.527Z,4.90
2022-11-02T12:35:27.701Z,4.80
2022-11-02T12:37:18.100Z,3.90
2022-11-02T12:38:48.261Z,5.68
2022-11-02T12:40:05.365Z,5.90
2022-11-02T12:41:10.866Z,4.72
2022-11-02T12:42:25.594Z,4.57
2022-11-02T12:43:44.600Z,3.67
2022-11-02T12:44:57.856Z,5.05
2022-11-02T12:46:05.055Z,5.00
2022-11-02T12:47:18.644Z,4.28
2022-11-02T12:48:27.217Z,3.85
2022-11-02T12:49:40.810Z,4.10
2022-11-02T12:50:55.788Z,4.38
2022-11-02T12:52:04.633Z,4.10
2022-11-02T12:53:19.857Z,5.15
2022-11-02T12:54:27.293Z,3.90
2022-11-02T12:55:38.163Z,4.40
2022-11-02T12:56:48.320Z,4.13
2022-11-02T12:57:55.120Z,4.28
2022-11-02T12:58:58.864Z,4.05
2022-11-02T13:00:05.933Z,4.38
2022-11-02T13:01:14.540Z,4.50
2022-11-02T13:02:21.403Z,3.70
2022-11-02T13:03:30.873Z,4.10
2022-11-02T13:04:40.949Z,4.10
2022-11-02T13:05:47.621Z,3.78
2022-11-02T13:06:53.027Z,3.85
2022-11-02T13:08:01.638Z,4.20
2022-11-02T13:09:09.886Z,4.60
2022-11-02T13:10:16.456Z,4.25
2022-11-02T13:11:24.144Z,5.20
2022-11-02T13:12:27.534Z,4.60
2022-11-02T13:13:36.724Z,4.88
2022-11-02T13:14:42.676Z,4.43
2022-11-02T13:15:47.175Z,4.45
2022-11-02T13:16:54.553Z,4.13
2022-11-02T13:18:00.214Z,4.38
2022-11-02T13:19:04.797Z,4.15
2022-11-02T13:20:16.564Z,4.22
2022-11-02T13:21:23.435Z,4.47
2022-11-02T13:22:30.926Z,4.32
2022-11-02T13:23:39.603Z,4.40
2022-11-02T13:24:46.995Z,4.28
2022-11-02T13:25:52.015Z,4.80
2022-11-02T13:26:57.522Z,4.60
2022-11-02T13:28:15.107Z,4.28
2022-11-02T13:29:22.875Z,3.67
2022-11-02T13:30:25.532Z,4.72
2022-11-02T13:31:31.993Z,3.75
2022-11-02T13:32:38.064Z,3.92
2022-11-02T13:33:45.143Z,3.65
2022-11-02T13:34:50.384Z,4.18
2022-11-02T13:35:54.584Z,4.38
2022-11-02T13:36:58.342Z,4.32
2022-11-02T13:38:05.924Z,3.60
2022-11-02T13:39:15.304Z,3.15
2022-11-02T13:40:24.476Z,4.43
2022-11-02T13:41:52.904Z,3.60
2022-11-02T13:43:32.947Z,3.65
2022-11-02T13:45:15.345Z,3.90
2022-11-02T13:46:34.716Z,3.97
2022-11-02T13:47:58.252Z,3.50
2022-11-02T13:49:04.511Z,3.88
2022-11-02T13:50:12.169Z,3.97
2022-11-02T13:51:25.223Z,3.80
2022-11-02T13:52:35.996Z,3.78
2022-11-02T13:53:41.226Z,3.47
2022-11-02T13:54:47.029Z,4.75
2022-11-02T13:55:54.491Z,4.10
2022-11-02T13:56:59.931Z,11.20
2022-11-02T13:58:03.002Z,4.72
2022-11-02T13:59:08.873Z,32.65
2022-11-02T14:00:30.271Z,49.65
2022-11-02T14:01:36.746Z,14.13
2022-11-02T14:02:42.091Z,9.23
2022-11-02T14:03:50.875Z,12.48
2022-11-02T14:04:54.600Z,8.57
2022-11-02T14:06:00.467Z,5.53
2022-11-02T14:07:07.323Z,4.78
2022-11-02T14:08:12.905Z,8.63
2022-11-02T14:09:28.431Z,7.55
2022-11-02T14:10:33.756Z,4.65
2022-11-02T14:11:48.484Z,4.78
2022-11-02T14:12:51.334Z,4.82
2022-11-02T14:14:16.165Z,4.53
2022-11-02T14:15:46.645Z,4.40
2022-11-02T14:18:31.757Z,4.63
2022-11-02T14:19:51.743Z,5.03
2022-11-02T14:20:55.454Z,5.07
2022-11-02T14:22:11.452Z,5.50
2022-11-02T14:23:39.870Z,4.90
2022-11-02T14:24:55.612Z,8.57
2022-11-02T14:26:00.611Z,9.40
2022-11-02T14:27:05.353Z,6.45
2022-11-02T14:28:32.463Z,6.95
2022-11-02T14:29:53.242Z,5.65
2022-11-02T14:30:59.601Z,5.68
2022-11-02T14:32:05.915Z,5.53
2022-11-02T14:33:30.444Z,5.80
2022-11-02T14:34:56.013Z,5.88
2022-11-02T14:36:01.902Z,6.05
2022-11-02T14:37:20.736Z,5.72
2022-11-02T14:38:58.975Z,6.18
2022-11-02T14:40:09.270Z,6.45
2022-11-02T14:41:24.252Z,5.57
2022-11-02T14:42:49.293Z,6.32
2022-11-02T14:44:21.385Z,6.25
2022-11-02T14:45:34.285Z,5.55
2022-11-02T14:46:51.345Z,5.32
2022-11-02T14:47:59.104Z,6.47
2022-11-02T14:49:04.424Z,6.50
2022-11-02T14:50:10.316Z,6.70
2022-11-02T14:51:18.504Z,6.75
2022-11-02T14:52:28.563Z,5.60
2022-11-02T14:53:33.556Z,6.00
2022-11-02T14:54:41.972Z,8.82